sensor_id;sensor_type;location;lat;lon;timestamp;temperature;humidity
6609;DHT22;61468;48.79282455;9.06262200;2022-08-21T00:02:16;23.30;1.00
6609;DHT22;61468;48.79282455;9.06262200;2022-08-21T00:05:00;23.40;1.00
6609;DHT22;61468;48.79282455;9.06262200;2022-08-21T00:07:45;23.40;1.00
6609;DHT22;61468;48.79282455;9.06262200;2022-08-21T00:10:30;23.40;1.00
6609;DHT22;61468;48.79282455;9.06262200;2022-08-21T00:13:17;23.40;1.00
6609;DHT22;61468;48.79282455;9.06262200;2022-08-21T00:16:02;23.30;1.00
6609;DHT22;61468;48.79282455;9.06262200;2022-08-21T00:18:47;23.30;1.00
6609;DHT22;61468;48.79282455;9.06262200;2022-08-21T00:21:31;23.30;1.00
6609;DHT22;61468;48.79282455;9.06262200;2022-08-21T00:24:15;23.30;1.00
6609;DHT22;61468;48.79282455;9.06262200;2022-08-21T00:26:59;23.30;1.00
6609;DHT22;61468;48.79282455;9.06262200;2022-08-21T00:29:43;23.30;1.00
6609;DHT22;61468;48.79282455;9.06262200;2022-08-21T00:32:28;23.30;1.00
6609;DHT22;61468;48.79282455;9.06262200;2022-08-21T00:35:17;23.30;1.00
6609;DHT22;61468;48.79282455;9.06262200;2022-08-21T00:38:04;23.30;1.00
6609;DHT22;61468;48.79282455;9.06262200;2022-08-21T00:40:52;23.30;1.00
6609;DHT22;61468;48.79282455;9.06262200;2022-08-21T00:43:38;23.30;1.00
6609;DHT22;61468;48.79282455;9.06262200;2022-08-21T00:46:23;23.20;1.00
6609;DHT22;61468;48.79282455;9.06262200;2022-08-21T00:49:08;23.20;1.00
6609;DHT22;61468;48.79282455;9.06262200;2022-08-21T00:51:57;23.20;1.00
6609;DHT22;61468;48.79282455;9.06262200;2022-08-21T00:54:42;23.20;1.00
6609;DHT22;61468;48.79282455;9.06262200;2022-08-21T00:57:34;23.30;1.00
6609;DHT22;61468;48.79282455;9.06262200;2022-08-21T01:00:24;23.30;1.00
6609;DHT22;61468;48.79282455;9.06262200;2022-08-21T01:03:13;23.30;1.00
6609;DHT22;61468;48.79282455;9.06262200;2022-08-21T01:05:58;23.30;1.00
6609;DHT22;61468;48.79282455;9.06262200;2022-08-21T01:08:43;23.30;1.00
6609;DHT22;61468;48.79282455;9.06262200;2022-08-21T01:11:27;23.30;1.00
6609;DHT22;61468;48.79282455;9.06262200;2022-08-21T01:14:12;23.30;1.00
6609;DHT22;61468;48.79282455;9.06262200;2022-08-21T01:16:58;23.30;1.00
6609;DHT22;61468;48.79282455;9.06262200;2022-08-21T01:19:43;23.40;1.00
6609;DHT22;61468;48.79282455;9.06262200;2022-08-21T01:22:27;23.30;1.00
6609;DHT22;61468;48.79282455;9.06262200;2022-08-21T01:25:17;23.30;1.00
6609;DHT22;61468;48.79282455;9.06262200;2022-08-21T01:28:12;23.30;1.00
6609;DHT22;61468;48.79282455;9.06262200;2022-08-21T01:30:56;23.30;1.00
6609;DHT22;61468;48.79282455;9.06262200;2022-08-21T01:33:41;23.20;1.00
6609;DHT22;61468;48.79282455;9.06262200;2022-08-21T01:36:25;23.30;1.00
6609;DHT22;61468;48.79282455;9.06262200;2022-08-21T01:39:10;23.30;1.00
6609;DHT22;61468;48.79282455;9.06262200;2022-08-21T01:41:54;23.30;1.00
6609;DHT22;61468;48.79282455;9.06262200;2022-08-21T01:44:39;23.30;1.00
6609;DHT22;61468;48.79282455;9.06262200;2022-08-21T01:47:23;23.30;1.00
6609;DHT22;61468;48.79282455;9.06262200;2022-08-21T01:50:12;23.00;1.00
6609;DHT22;61468;48.79282455;9.06262200;2022-08-21T01:52:57;22.90;1.00
6609;DHT22;61468;48.79282455;9.06262200;2022-08-21T01:55:42;22.90;1.00
6609;DHT22;61468;48.79282455;9.06262200;2022-08-21T01:58:27;23.00;1.00
6609;DHT22;61468;48.79282455;9.06262200;2022-08-21T02:01:11;23.10;1.00
6609;DHT22;61468;48.79282455;9.06262200;2022-08-21T02:03:55;23.10;1.00
6609;DHT22;61468;48.79282455;9.06262200;2022-08-21T02:06:40;23.00;1.00
6609;DHT22;61468;48.79282455;9.06262200;2022-08-21T02:09:24;23.00;1.00
6609;DHT22;61468;48.79282455;9.06262200;2022-08-21T02:12:09;23.10;1.00
6609;DHT22;61468;48.79282455;9.06262200;2022-08-21T02:14:54;23.10;1.00
6609;DHT22;61468;48.79282455;9.06262200;2022-08-21T02:17:44;23.10;1.00
6609;DHT22;61468;48.79282455;9.06262200;2022-08-21T02:20:41;23.10;1.00
6609;DHT22;61468;48.79282455;9.06262200;2022-08-21T02:23:25;23.20;1.00
6609;DHT22;61468;48.79282455;9.06262200;2022-08-21T02:26:09;23.20;1.00
6609;DHT22;61468;48.79282455;9.06262200;2022-08-21T02:28:54;23.20;1.00
6609;DHT22;61468;48.79282455;9.06262200;2022-08-21T02:31:38;23.20;1.00
6609;DHT22;61468;48.79282455;9.06262200;2022-08-21T02:34:22;23.20;1.00
6609;DHT22;61468;48.79282455;9.06262200;2022-08-21T02:37:06;23.20;1.00
6609;DHT22;61468;48.79282455;9.06262200;2022-08-21T02:39:50;23.20;1.00
6609;DHT22;61468;48.79282455;9.06262200;2022-08-21T02:42:35;23.20;1.00
6609;DHT22;61468;48.79282455;9.06262200;2022-08-21T02:45:20;23.20;1.00
6609;DHT22;61468;48.79282455;9.06262200;2022-08-21T02:48:09;23.30;1.00
6609;DHT22;61468;48.79282455;9.06262200;2022-08-21T02:51:07;23.30;1.00
6609;DHT22;61468;48.79282455;9.06262200;2022-08-21T02:53:52;23.20;1.00
6609;DHT22;61468;48.79282455;9.06262200;2022-08-21T02:56:35;23.30;1.00
6609;DHT22;61468;48.79282455;9.06262200;2022-08-21T02:59:20;23.20;1.00
6609;DHT22;61468;48.79282455;9.06262200;2022-08-21T03:02:05;23.20;1.00
6609;DHT22;61468;48.79282455;9.06262200;2022-08-21T03:04:48;23.20;1.00
6609;DHT22;61468;48.79282455;9.06262200;2022-08-21T03:07:32;23.20;1.00
6609;DHT22;61468;48.79282455;9.06262200;2022-08-21T03:10:20;23.20;1.00
6609;DHT22;61468;48.79282455;9.06262200;2022-08-21T03:13:04;23.20;1.00
6609;DHT22;61468;48.79282455;9.06262200;2022-08-21T03:15:50;23.20;1.00
6609;DHT22;61468;48.79282455;9.06262200;2022-08-21T03:18:34;23.20;1.00
6609;DHT22;61468;48.79282455;9.06262200;2022-08-21T03:21:19;23.20;1.00
6609;DHT22;61468;48.79282455;9.06262200;2022-08-21T03:24:03;23.20;1.00
6609;DHT22;61468;48.79282455;9.06262200;2022-08-21T03:26:48;23.20;1.00
6609;DHT22;61468;48.79282455;9.06262200;2022-08-21T03:29:32;23.20;1.00
6609;DHT22;61468;48.79282455;9.06262200;2022-08-21T03:32:16;23.20;1.00
6609;DHT22;61468;48.79282455;9.06262200;2022-08-21T03:35:01;23.20;1.00
6609;DHT22;61468;48.79282455;9.06262200;2022-08-21T03:37:46;23.20;1.00
6609;DHT22;61468;48.79282455;9.06262200;2022-08-21T03:40:30;23.20;1.00
6609;DHT22;61468;48.79282455;9.06262200;2022-08-21T03:43:15;23.20;1.00
6609;DHT22;61468;48.79282455;9.06262200;2022-08-21T03:46:01;23.20;1.00
6609;DHT22;61468;48.79282455;9.06262200;2022-08-21T03:48:45;23.20;1.00
6609;DHT22;61468;48.79282455;9.06262200;2022-08-21T03:51:29;23.20;1.00
6609;DHT22;61468;48.79282455;9.06262200;2022-08-21T03:54:17;23.20;1.00
6609;DHT22;61468;48.79282455;9.06262200;2022-08-21T03:57:02;23.20;1.00
6609;DHT22;61468;48.79282455;9.06262200;2022-08-21T03:59:47;23.20;1.00
6609;DHT22;61468;48.79282455;9.06262200;2022-08-21T04:02:31;23.20;1.00
6609;DHT22;61468;48.79282455;9.06262200;2022-08-21T04:05:17;23.10;1.00
6609;DHT22;61468;48.79282455;9.06262200;2022-08-21T04:08:11;23.20;1.00
6609;DHT22;61468;48.79282455;9.06262200;2022-08-21T04:10:56;23.20;1.00
6609;DHT22;61468;48.79282455;9.06262200;2022-08-21T04:13:41;23.20;1.00
6609;DHT22;61468;48.79282455;9.06262200;2022-08-21T04:16:25;23.20;1.00
6609;DHT22;61468;48.79282455;9.06262200;2022-08-21T04:19:10;23.20;1.00
6609;DHT22;61468;48.79282455;9.06262200;2022-08-21T04:21:55;23.10;1.00
6609;DHT22;61468;48.79282455;9.06262200;2022-08-21T04:24:39;23.20;1.00
6609;DHT22;61468;48.79282455;9.06262200;2022-08-21T04:27:23;23.20;1.00
6609;DHT22;61468;48.79282455;9.06262200;2022-08-21T04:30:08;23.20;1.00
6609;DHT22;61468;48.79282455;9.06262200;2022-08-21T04:32:53;23.20;1.00
6609;DHT22;61468;48.79282455;9.06262200;2022-08-21T04:35:37;23.10;1.00
6609;DHT22;61468;48.79282455;9.06262200;2022-08-21T04:38:21;23.10;1.00
6609;DHT22;61468;48.79282455;9.06262200;2022-08-21T04:41:06;23.10;1.00
6609;DHT22;61468;48.79282455;9.06262200;2022-08-21T04:43:51;23.20;1.00
6609;DHT22;61468;48.79282455;9.06262200;2022-08-21T04:46:35;23.10;1.00
6609;DHT22;61468;48.79282455;9.06262200;2022-08-21T04:49:19;23.10;1.00
6609;DHT22;61468;48.79282455;9.06262200;2022-08-21T04:52:04;23.10;1.00
6609;DHT22;61468;48.79282455;9.06262200;2022-08-21T04:54:50;23.10;1.00
6609;DHT22;61468;48.79282455;9.06262200;2022-08-21T04:57:35;23.20;1.00
6609;DHT22;61468;48.79282455;9.06262200;2022-08-21T05:00:22;23.20;1.00
6609;DHT22;61468;48.79282455;9.06262200;2022-08-21T05:03:09;23.10;1.00
6609;DHT22;61468;48.79282455;9.06262200;2022-08-21T05:05:55;23.10;1.00
6609;DHT22;61468;48.79282455;9.06262200;2022-08-21T05:08:39;23.10;1.00
6609;DHT22;61468;48.79282455;9.06262200;2022-08-21T05:11:24;23.10;1.00
6609;DHT22;61468;48.79282455;9.06262200;2022-08-21T05:14:09;23.10;1.00
6609;DHT22;61468;48.79282455;9.06262200;2022-08-21T05:16:55;23.10;1.00
6609;DHT22;61468;48.79282455;9.06262200;2022-08-21T05:19:40;23.10;1.00
6609;DHT22;61468;48.79282455;9.06262200;2022-08-21T05:22:24;23.10;1.00
6609;DHT22;61468;48.79282455;9.06262200;2022-08-21T05:25:09;23.10;1.00
6609;DHT22;61468;48.79282455;9.06262200;2022-08-21T05:27:53;23.10;1.00
6609;DHT22;61468;48.79282455;9.06262200;2022-08-21T05:30:38;23.10;1.00
6609;DHT22;61468;48.79282455;9.06262200;2022-08-21T05:33:23;23.10;1.00
6609;DHT22;61468;48.79282455;9.06262200;2022-08-21T05:36:07;23.10;1.00
6609;DHT22;61468;48.79282455;9.06262200;2022-08-21T05:38:51;23.10;1.00
6609;DHT22;61468;48.79282455;9.06262200;2022-08-21T05:41:35;23.10;1.00
6609;DHT22;61468;48.79282455;9.06262200;2022-08-21T05:44:19;23.10;1.00
6609;DHT22;61468;48.79282455;9.06262200;2022-08-21T05:47:05;23.10;1.00
6609;DHT22;61468;48.79282455;9.06262200;2022-08-21T05:49:50;23.10;1.00
6609;DHT22;61468;48.79282455;9.06262200;2022-08-21T05:52:34;23.10;1.00
6609;DHT22;61468;48.79282455;9.06262200;2022-08-21T05:55:18;23.10;1.00
6609;DHT22;61468;48.79282455;9.06262200;2022-08-21T05:58:02;23.10;1.00
6609;DHT22;61468;48.79282455;9.06262200;2022-08-21T06:00:48;23.10;1.00
6609;DHT22;61468;48.79282455;9.06262200;2022-08-21T06:03:35;23.10;1.00
6609;DHT22;61468;48.79282455;9.06262200;2022-08-21T06:06:19;23.10;1.00
6609;DHT22;61468;48.79282455;9.06262200;2022-08-21T06:09:04;23.10;1.00
6609;DHT22;61468;48.79282455;9.06262200;2022-08-21T06:11:49;23.20;1.00
6609;DHT22;61468;48.79282455;9.06262200;2022-08-21T06:14:33;23.20;1.00
6609;DHT22;61468;48.79282455;9.06262200;2022-08-21T06:17:18;23.20;1.00
6609;DHT22;61468;48.79282455;9.06262200;2022-08-21T06:20:03;23.20;1.00
6609;DHT22;61468;48.79282455;9.06262200;2022-08-21T06:22:48;23.20;1.00
6609;DHT22;61468;48.79282455;9.06262200;2022-08-21T06:25:32;23.20;1.00
6609;DHT22;61468;48.79282455;9.06262200;2022-08-21T06:28:16;23.20;1.00
6609;DHT22;61468;48.79282455;9.06262200;2022-08-21T06:31:01;23.20;1.00
6609;DHT22;61468;48.79282455;9.06262200;2022-08-21T06:33:46;23.20;1.00
6609;DHT22;61468;48.79282455;9.06262200;2022-08-21T06:36:30;23.20;1.00
6609;DHT22;61468;48.79282455;9.06262200;2022-08-21T06:39:14;23.20;1.00
6609;DHT22;61468;48.79282455;9.06262200;2022-08-21T06:41:59;23.20;1.00
6609;DHT22;61468;48.79282455;9.06262200;2022-08-21T06:44:43;23.30;1.00
6609;DHT22;61468;48.79282455;9.06262200;2022-08-21T06:47:28;23.30;1.00
6609;DHT22;61468;48.79282455;9.06262200;2022-08-21T06:50:12;23.30;1.00
6609;DHT22;61468;48.79282455;9.06262200;2022-08-21T06:53:05;23.30;1.00
6609;DHT22;61468;48.79282455;9.06262200;2022-08-21T06:55:50;23.30;1.00
6609;DHT22;61468;48.79282455;9.06262200;2022-08-21T06:58:34;23.30;1.00
6609;DHT22;61468;48.79282455;9.06262200;2022-08-21T07:01:21;23.40;1.00
6609;DHT22;61468;48.79282455;9.06262200;2022-08-21T07:04:07;23.40;1.00
6609;DHT22;61468;48.79282455;9.06262200;2022-08-21T07:06:51;23.50;1.00
6609;DHT22;61468;48.79282455;9.06262200;2022-08-21T07:09:35;23.50;1.00
6609;DHT22;61468;48.79282455;9.06262200;2022-08-21T07:12:19;23.50;1.00
6609;DHT22;61468;48.79282455;9.06262200;2022-08-21T07:15:04;23.60;1.00
6609;DHT22;61468;48.79282455;9.06262200;2022-08-21T07:17:48;23.60;1.00
6609;DHT22;61468;48.79282455;9.06262200;2022-08-21T07:20:33;23.70;1.00
6609;DHT22;61468;48.79282455;9.06262200;2022-08-21T07:23:29;23.70;1.00
6609;DHT22;61468;48.79282455;9.06262200;2022-08-21T07:26:15;23.70;1.00
6609;DHT22;61468;48.79282455;9.06262200;2022-08-21T07:29:00;23.80;1.00
6609;DHT22;61468;48.79282455;9.06262200;2022-08-21T07:31:45;23.80;1.00
6609;DHT22;61468;48.79282455;9.06262200;2022-08-21T07:34:29;23.90;1.00
6609;DHT22;61468;48.79282455;9.06262200;2022-08-21T07:37:14;24.00;1.00
6609;DHT22;61468;48.79282455;9.06262200;2022-08-21T07:39:58;24.00;1.00
6609;DHT22;61468;48.79282455;9.06262200;2022-08-21T07:42:43;24.00;1.00
6609;DHT22;61468;48.79282455;9.06262200;2022-08-21T07:45:27;24.00;1.00
6609;DHT22;61468;48.79282455;9.06262200;2022-08-21T07:48:12;24.10;1.00
6609;DHT22;61468;48.79282455;9.06262200;2022-08-21T07:50:56;24.20;1.00
6609;DHT22;61468;48.79282455;9.06262200;2022-08-21T07:53:40;24.20;1.00
6609;DHT22;61468;48.79282455;9.06262200;2022-08-21T07:56:26;24.20;1.00
6609;DHT22;61468;48.79282455;9.06262200;2022-08-21T07:59:10;24.30;1.00
6609;DHT22;61468;48.79282455;9.06262200;2022-08-21T08:01:54;24.30;1.00
6609;DHT22;61468;48.79282455;9.06262200;2022-08-21T08:04:38;24.30;1.00
6609;DHT22;61468;48.79282455;9.06262200;2022-08-21T08:07:22;24.30;1.00
6609;DHT22;61468;48.79282455;9.06262200;2022-08-21T08:10:07;24.30;1.00
6609;DHT22;61468;48.79282455;9.06262200;2022-08-21T08:12:52;24.30;1.00
6609;DHT22;61468;48.79282455;9.06262200;2022-08-21T08:15:38;24.30;1.00
6609;DHT22;61468;48.79282455;9.06262200;2022-08-21T08:18:22;24.20;1.00
6609;DHT22;61468;48.79282455;9.06262200;2022-08-21T08:21:06;24.00;1.00
6609;DHT22;61468;48.79282455;9.06262200;2022-08-21T08:23:50;24.00;1.00
6609;DHT22;61468;48.79282455;9.06262200;2022-08-21T08:26:34;24.00;1.00
6609;DHT22;61468;48.79282455;9.06262200;2022-08-21T08:29:18;23.80;1.00
6609;DHT22;61468;48.79282455;9.06262200;2022-08-21T08:32:03;23.70;1.00
6609;DHT22;61468;48.79282455;9.06262200;2022-08-21T08:34:48;23.80;1.00
6609;DHT22;61468;48.79282455;9.06262200;2022-08-21T08:37:33;23.80;1.00
6609;DHT22;61468;48.79282455;9.06262200;2022-08-21T08:40:25;23.70;1.00
6609;DHT22;61468;48.79282455;9.06262200;2022-08-21T08:43:13;23.70;1.00
6609;DHT22;61468;48.79282455;9.06262200;2022-08-21T08:46:01;23.60;1.00
6609;DHT22;61468;48.79282455;9.06262200;2022-08-21T08:48:54;23.60;1.00
6609;DHT22;61468;48.79282455;9.06262200;2022-08-21T08:51:52;23.60;1.00
6609;DHT22;61468;48.79282455;9.06262200;2022-08-21T08:54:43;23.60;1.00
6609;DHT22;61468;48.79282455;9.06262200;2022-08-21T08:57:30;23.70;1.00
6609;DHT22;61468;48.79282455;9.06262200;2022-08-21T09:00:18;23.60;1.00
6609;DHT22;61468;48.79282455;9.06262200;2022-08-21T09:03:03;23.70;1.00
6609;DHT22;61468;48.79282455;9.06262200;2022-08-21T09:05:49;23.70;1.00
6609;DHT22;61468;48.79282455;9.06262200;2022-08-21T09:12:11;23.60;1.00
6609;DHT22;61468;48.79282455;9.06262200;2022-08-21T09:18:23;23.60;1.00
6609;DHT22;61468;48.79282455;9.06262200;2022-08-21T09:21:20;23.70;1.00
6609;DHT22;61468;48.79282455;9.06262200;2022-08-21T09:24:29;24.00;1.00
6609;DHT22;61468;48.79282455;9.06262200;2022-08-21T09:27:18;24.00;1.00
6609;DHT22;61468;48.79282455;9.06262200;2022-08-21T09:30:04;24.00;1.00
6609;DHT22;61468;48.79282455;9.06262200;2022-08-21T09:32:48;24.00;1.00
6609;DHT22;61468;48.79282455;9.06262200;2022-08-21T09:35:33;23.90;1.00
6609;DHT22;61468;48.79282455;9.06262200;2022-08-21T09:38:29;23.90;1.00
6609;DHT22;61468;48.79282455;9.06262200;2022-08-21T09:41:29;23.90;1.00
6609;DHT22;61468;48.79282455;9.06262200;2022-08-21T09:44:25;23.90;1.00
6609;DHT22;61468;48.79282455;9.06262200;2022-08-21T09:47:10;23.80;1.00
6609;DHT22;61468;48.79282455;9.06262200;2022-08-21T09:50:11;23.80;1.00
6609;DHT22;61468;48.79282455;9.06262200;2022-08-21T09:52:58;23.80;1.00
6609;DHT22;61468;48.79282455;9.06262200;2022-08-21T09:55:59;23.80;1.00
6609;DHT22;61468;48.79282455;9.06262200;2022-08-21T09:59:14;23.80;1.00
6609;DHT22;61468;48.79282455;9.06262200;2022-08-21T10:02:01;23.90;1.00
6609;DHT22;61468;48.79282455;9.06262200;2022-08-21T10:04:51;24.00;1.00
6609;DHT22;61468;48.79282455;9.06262200;2022-08-21T10:07:37;24.10;1.00
6609;DHT22;61468;48.79282455;9.06262200;2022-08-21T10:10:30;24.10;1.00
6609;DHT22;61468;48.79282455;9.06262200;2022-08-21T10:13:44;24.00;1.00
6609;DHT22;61468;48.79282455;9.06262200;2022-08-21T10:17:01;24.00;1.00
6609;DHT22;61468;48.79282455;9.06262200;2022-08-21T10:35:37;24.00;1.00
6609;DHT22;61468;48.79282455;9.06262200;2022-08-21T10:38:55;24.10;1.00
6609;DHT22;61468;48.79282455;9.06262200;2022-08-21T10:44:59;24.10;1.00
6609;DHT22;61468;48.79282455;9.06262200;2022-08-21T10:47:53;24.10;1.00
6609;DHT22;61468;48.79282455;9.06262200;2022-08-21T10:50:44;24.10;1.00
6609;DHT22;61468;48.79282455;9.06262200;2022-08-21T10:56:36;24.10;1.00
6609;DHT22;61468;48.79282455;9.06262200;2022-08-21T10:59:24;24.20;1.00
6609;DHT22;61468;48.79282455;9.06262200;2022-08-21T11:02:17;24.20;1.00
6609;DHT22;61468;48.79282455;9.06262200;2022-08-21T11:05:15;24.20;1.00
6609;DHT22;61468;48.79282455;9.06262200;2022-08-21T11:08:10;24.20;1.00
6609;DHT22;61468;48.79282455;9.06262200;2022-08-21T11:11:04;24.20;1.00
6609;DHT22;61468;48.79282455;9.06262200;2022-08-21T11:13:58;24.10;1.00
6609;DHT22;61468;48.79282455;9.06262200;2022-08-21T11:16:57;24.10;1.00
6609;DHT22;61468;48.79282455;9.06262200;2022-08-21T11:19:57;24.10;1.00
6609;DHT22;61468;48.79282455;9.06262200;2022-08-21T11:22:51;24.20;1.00
6609;DHT22;61468;48.79282455;9.06262200;2022-08-21T11:25:47;24.20;1.00
6609;DHT22;61468;48.79282455;9.06262200;2022-08-21T11:28:37;24.20;1.00
6609;DHT22;61468;48.79282455;9.06262200;2022-08-21T11:31:36;24.20;1.00
6609;DHT22;61468;48.79282455;9.06262200;2022-08-21T11:37:37;24.40;1.00
6609;DHT22;61468;48.79282455;9.06262200;2022-08-21T11:43:49;24.40;1.00
6609;DHT22;61468;48.79282455;9.06262200;2022-08-21T11:46:59;24.40;1.00
6609;DHT22;61468;48.79282455;9.06262200;2022-08-21T11:52:52;24.40;1.00
6609;DHT22;61468;48.79282455;9.06262200;2022-08-21T11:55:39;24.40;1.00
6609;DHT22;61468;48.79282455;9.06262200;2022-08-21T12:01:20;24.40;1.00
6609;DHT22;61468;48.79282455;9.06262200;2022-08-21T12:04:32;24.40;1.00
6609;DHT22;61468;48.79282455;9.06262200;2022-08-21T12:07:34;24.30;1.00
6609;DHT22;61468;48.79282455;9.06262200;2022-08-21T12:10:19;24.20;1.00
6609;DHT22;61468;48.79282455;9.06262200;2022-08-21T12:13:27;24.20;1.00
6609;DHT22;61468;48.79282455;9.06262200;2022-08-21T12:16:14;24.30;1.00
6609;DHT22;61468;48.79282455;9.06262200;2022-08-21T12:19:11;24.40;1.00
6609;DHT22;61468;48.79282455;9.06262200;2022-08-21T12:22:11;24.40;1.00
6609;DHT22;61468;48.79282455;9.06262200;2022-08-21T12:25:05;24.40;1.00
6609;DHT22;61468;48.79282455;9.06262200;2022-08-21T12:27:53;24.50;1.00
6609;DHT22;61468;48.79282455;9.06262200;2022-08-21T12:30:45;24.60;1.00
6609;DHT22;61468;48.79282455;9.06262200;2022-08-21T12:33:37;24.60;1.00
6609;DHT22;61468;48.79282455;9.06262200;2022-08-21T12:36:56;24.60;1.00
6609;DHT22;61468;48.79282455;9.06262200;2022-08-21T12:39:44;24.60;1.00
6609;DHT22;61468;48.79282455;9.06262200;2022-08-21T12:42:43;24.60;1.00
6609;DHT22;61468;48.79282455;9.06262200;2022-08-21T12:45:33;24.60;1.00
6609;DHT22;61468;48.79282455;9.06262200;2022-08-21T12:48:31;24.70;1.00
6609;DHT22;61468;48.79282455;9.06262200;2022-08-21T12:51:18;24.70;1.00
6609;DHT22;61468;48.79282455;9.06262200;2022-08-21T12:54:05;24.80;1.00
6609;DHT22;61468;48.79282455;9.06262200;2022-08-21T12:57:04;24.80;1.00
6609;DHT22;61468;48.79282455;9.06262200;2022-08-21T12:59:56;24.80;1.00
6609;DHT22;61468;48.79282455;9.06262200;2022-08-21T13:02:48;24.70;1.00
6609;DHT22;61468;48.79282455;9.06262200;2022-08-21T13:05:37;24.70;1.00
6609;DHT22;61468;48.79282455;9.06262200;2022-08-21T13:08:22;24.70;1.00
6609;DHT22;61468;48.79282455;9.06262200;2022-08-21T13:11:07;24.80;1.00
6609;DHT22;61468;48.79282455;9.06262200;2022-08-21T13:13:53;24.80;1.00
6609;DHT22;61468;48.79282455;9.06262200;2022-08-21T13:16:37;24.80;1.00
6609;DHT22;61468;48.79282455;9.06262200;2022-08-21T13:19:22;24.80;1.00
6609;DHT22;61468;48.79282455;9.06262200;2022-08-21T13:22:13;25.00;1.00
6609;DHT22;61468;48.79282455;9.06262200;2022-08-21T13:24:58;25.00;1.00
6609;DHT22;61468;48.79282455;9.06262200;2022-08-21T13:27:43;25.20;1.00
6609;DHT22;61468;48.79282455;9.06262200;2022-08-21T13:30:28;25.20;1.00
6609;DHT22;61468;48.79282455;9.06262200;2022-08-21T13:33:15;25.30;1.00
6609;DHT22;61468;48.79282455;9.06262200;2022-08-21T13:36:04;25.40;1.00
6609;DHT22;61468;48.79282455;9.06262200;2022-08-21T13:38:51;25.40;1.00
6609;DHT22;61468;48.79282455;9.06262200;2022-08-21T13:41:40;25.40;1.00
6609;DHT22;61468;48.79282455;9.06262200;2022-08-21T13:44:35;25.50;1.00
6609;DHT22;61468;48.79282455;9.06262200;2022-08-21T13:47:20;25.50;1.00
6609;DHT22;61468;48.79282455;9.06262200;2022-08-21T13:50:05;25.50;1.00
6609;DHT22;61468;48.79282455;9.06262200;2022-08-21T13:53:03;25.50;1.00
6609;DHT22;61468;48.79282455;9.06262200;2022-08-21T13:55:48;25.40;1.00
6609;DHT22;61468;48.79282455;9.06262200;2022-08-21T13:58:43;25.50;1.00
6609;DHT22;61468;48.79282455;9.06262200;2022-08-21T14:01:48;25.40;1.00
6609;DHT22;61468;48.79282455;9.06262200;2022-08-21T14:04:36;25.30;1.00
6609;DHT22;61468;48.79282455;9.06262200;2022-08-21T14:07:28;25.30;1.00
6609;DHT22;61468;48.79282455;9.06262200;2022-08-21T14:10:20;25.30;1.00
6609;DHT22;61468;48.79282455;9.06262200;2022-08-21T14:13:06;25.40;1.00
6609;DHT22;61468;48.79282455;9.06262200;2022-08-21T14:15:58;25.40;1.00
6609;DHT22;61468;48.79282455;9.06262200;2022-08-21T14:19:07;25.60;1.00
6609;DHT22;61468;48.79282455;9.06262200;2022-08-21T14:21:51;25.60;1.00
6609;DHT22;61468;48.79282455;9.06262200;2022-08-21T14:24:39;25.60;1.00
6609;DHT22;61468;48.79282455;9.06262200;2022-08-21T14:27:23;25.60;1.00
6609;DHT22;61468;48.79282455;9.06262200;2022-08-21T14:30:32;25.70;1.00
6609;DHT22;61468;48.79282455;9.06262200;2022-08-21T14:33:29;25.70;1.00
6609;DHT22;61468;48.79282455;9.06262200;2022-08-21T14:36:14;25.80;1.00
6609;DHT22;61468;48.79282455;9.06262200;2022-08-21T14:38:58;25.90;1.00
6609;DHT22;61468;48.79282455;9.06262200;2022-08-21T14:41:44;25.90;1.00
6609;DHT22;61468;48.79282455;9.06262200;2022-08-21T14:44:32;26.00;1.00
6609;DHT22;61468;48.79282455;9.06262200;2022-08-21T14:47:17;26.00;1.00
6609;DHT22;61468;48.79282455;9.06262200;2022-08-21T14:50:01;25.90;1.00
6609;DHT22;61468;48.79282455;9.06262200;2022-08-21T14:52:45;26.00;1.00
6609;DHT22;61468;48.79282455;9.06262200;2022-08-21T14:55:32;26.00;1.00
6609;DHT22;61468;48.79282455;9.06262200;2022-08-21T14:58:41;25.90;1.00
6609;DHT22;61468;48.79282455;9.06262200;2022-08-21T15:01:26;25.90;1.00
6609;DHT22;61468;48.79282455;9.06262200;2022-08-21T15:04:10;25.80;1.00
6609;DHT22;61468;48.79282455;9.06262200;2022-08-21T15:06:55;25.70;1.00
6609;DHT22;61468;48.79282455;9.06262200;2022-08-21T15:09:39;25.60;1.00
6609;DHT22;61468;48.79282455;9.06262200;2022-08-21T15:12:24;25.60;1.00
6609;DHT22;61468;48.79282455;9.06262200;2022-08-21T15:15:08;25.60;1.00
6609;DHT22;61468;48.79282455;9.06262200;2022-08-21T15:17:53;25.60;1.00
6609;DHT22;61468;48.79282455;9.06262200;2022-08-21T15:20:38;25.70;1.00
6609;DHT22;61468;48.79282455;9.06262200;2022-08-21T15:23:22;25.80;1.00
6609;DHT22;61468;48.79282455;9.06262200;2022-08-21T15:26:06;26.00;1.00
6609;DHT22;61468;48.79282455;9.06262200;2022-08-21T15:28:51;25.90;1.00
6609;DHT22;61468;48.79282455;9.06262200;2022-08-21T15:31:35;25.90;1.00
6609;DHT22;61468;48.79282455;9.06262200;2022-08-21T15:34:21;26.00;1.00
6609;DHT22;61468;48.79282455;9.06262200;2022-08-21T15:37:05;26.00;1.00
6609;DHT22;61468;48.79282455;9.06262200;2022-08-21T15:39:51;26.10;1.00
6609;DHT22;61468;48.79282455;9.06262200;2022-08-21T15:42:39;26.20;1.00
6609;DHT22;61468;48.79282455;9.06262200;2022-08-21T15:45:23;26.20;1.00
6609;DHT22;61468;48.79282455;9.06262200;2022-08-21T15:48:08;26.10;1.00
6609;DHT22;61468;48.79282455;9.06262200;2022-08-21T15:50:52;25.90;1.00
6609;DHT22;61468;48.79282455;9.06262200;2022-08-21T15:53:37;26.00;1.00
6609;DHT22;61468;48.79282455;9.06262200;2022-08-21T15:56:35;26.10;1.00
6609;DHT22;61468;48.79282455;9.06262200;2022-08-21T15:59:21;26.20;1.00
6609;DHT22;61468;48.79282455;9.06262200;2022-08-21T16:02:30;26.20;1.00
6609;DHT22;61468;48.79282455;9.06262200;2022-08-21T16:05:14;26.30;1.00
6609;DHT22;61468;48.79282455;9.06262200;2022-08-21T16:08:00;26.40;1.00
6609;DHT22;61468;48.79282455;9.06262200;2022-08-21T16:10:45;26.40;1.00
6609;DHT22;61468;48.79282455;9.06262200;2022-08-21T16:13:36;26.40;1.00
6609;DHT22;61468;48.79282455;9.06262200;2022-08-21T16:16:23;26.40;1.00
6609;DHT22;61468;48.79282455;9.06262200;2022-08-21T16:19:07;26.40;1.00
6609;DHT22;61468;48.79282455;9.06262200;2022-08-21T16:21:53;26.40;1.00
6609;DHT22;61468;48.79282455;9.06262200;2022-08-21T16:24:37;26.50;1.00